createdAt,value
2023-01-02T00:04:35.370Z,93.70
2023-01-02T00:09:36.267Z,93.65
2023-01-02T00:14:37.016Z,93.91
2023-01-02T00:19:37.813Z,94.79
2023-01-02T00:24:38.520Z,94.21
2023-01-02T00:29:39.284Z,93.66
2023-01-02T00:34:40.022Z,93.16
2023-01-02T00:39:41.912Z,93.65
2023-01-02T00:44:42.636Z,92.46
2023-01-02T00:49:43.419Z,91.98
2023-01-02T00:54:44.119Z,92.20
2023-01-02T00:59:45.227Z,92.24
2023-01-02T01:04:46.050Z,92.32
2023-01-02T01:09:46.924Z,91.95
2023-01-02T01:14:47.769Z,92.54
2023-01-02T01:19:48.555Z,93.16
2023-01-02T01:24:49.388Z,92.59
2023-01-02T01:29:50.148Z,91.48
2023-01-02T01:34:50.895Z,90.81
2023-01-02T01:39:56.377Z,90.09
2023-01-02T01:44:57.702Z,90.95
2023-01-02T01:50:06.832Z,90.16
2023-01-02T01:55:18.538Z,90.12
2023-01-02T02:00:19.935Z,91.09
2023-01-02T02:05:25.483Z,91.84
2023-01-02T02:10:26.293Z,90.19
2023-01-02T02:15:38.914Z,88.82
2023-01-02T02:20:58.291Z,89.01
2023-01-02T02:28:06.505Z,88.70
2023-01-02T02:33:28.983Z,87.59
2023-01-02T02:38:57.685Z,88.01
2023-01-02T02:44:29.673Z,88.80
2023-01-02T02:51:13.859Z,89.94
2023-01-02T02:56:17.318Z,89.48
2023-01-02T03:01:19.260Z,88.47
2023-01-02T03:08:16.736Z,86.15
2023-01-02T03:13:42.477Z,85.69
2023-01-02T03:20:10.452Z,85.82
2023-01-02T03:25:14.576Z,85.54
2023-01-02T03:30:20.635Z,86.09
2023-01-02T03:35:34.857Z,87.04
2023-01-02T03:40:42.000Z,88.10
2023-01-02T03:45:50.451Z,89.62
2023-01-02T03:50:57.091Z,90.61
2023-01-02T03:56:52.532Z,88.57
2023-01-02T04:02:00.990Z,88.87
2023-01-02T04:07:05.844Z,89.46
2023-01-02T04:12:11.165Z,90.34
2023-01-02T04:17:15.071Z,88.76
2023-01-02T04:22:21.215Z,87.68
2023-01-02T04:27:32.535Z,88.44
2023-01-02T04:32:39.992Z,89.50
2023-01-02T04:37:42.374Z,89.73
2023-01-02T04:42:43.129Z,90.37
2023-01-02T04:47:44.260Z,90.02
2023-01-02T04:52:45.093Z,88.42
2023-01-02T04:57:45.898Z,87.55
2023-01-02T05:02:46.759Z,81.99
2023-01-02T05:07:47.737Z,80.99
2023-01-02T05:12:48.460Z,78.88
2023-01-02T05:17:49.508Z,78.01
2023-01-02T05:23:08.507Z,78.93
2023-01-02T05:28:09.370Z,79.44
2023-01-02T05:33:10.183Z,76.57
2023-01-02T05:38:11.022Z,74.74
2023-01-02T05:43:11.904Z,73.65
2023-01-02T05:48:12.673Z,74.94
2023-01-02T05:53:13.658Z,73.34
2023-01-02T05:58:14.532Z,72.91
2023-01-02T06:03:15.459Z,73.34
2023-01-02T06:08:16.281Z,72.94
2023-01-02T06:13:17.105Z,73.54
2023-01-02T06:18:17.816Z,73.37
2023-01-02T06:23:18.901Z,72.09
2023-01-02T06:28:19.826Z,70.66
2023-01-02T06:33:20.596Z,70.33
2023-01-02T06:38:21.311Z,68.38
2023-01-02T06:43:22.947Z,67.81
2023-01-02T06:48:24.038Z,67.50
2023-01-02T06:53:25.899Z,68.29
2023-01-02T06:58:29.595Z,68.79
2023-01-02T07:03:30.862Z,67.84
2023-01-02T07:08:32.531Z,68.00
2023-01-02T07:13:33.671Z,67.21
2023-01-02T07:18:35.336Z,68.04
2023-01-02T07:23:36.429Z,68.83
2023-01-02T07:28:37.842Z,69.61
2023-01-02T07:33:38.617Z,70.56
2023-01-02T07:38:39.437Z,71.37
2023-01-02T07:43:40.703Z,71.26
2023-01-02T07:48:41.545Z,71.46
2023-01-02T07:53:42.600Z,71.84
2023-01-02T07:58:43.427Z,72.01
2023-01-02T08:03:44.224Z,72.26
2023-01-02T08:08:46.504Z,73.39
2023-01-02T08:13:47.848Z,73.23
2023-01-02T08:18:53.779Z,73.80
2023-01-02T08:23:54.672Z,73.16
2023-01-02T08:28:55.945Z,73.49
2023-01-02T08:33:57.168Z,72.38
2023-01-02T08:38:57.968Z,71.80
2023-01-02T08:43:59.009Z,71.48
2023-01-02T08:48:59.865Z,71.75
2023-01-02T08:54:00.890Z,71.90
2023-01-02T08:59:05.638Z,72.32
2023-01-02T09:04:12.010Z,72.95
2023-01-02T09:09:15.715Z,73.32
2023-01-02T09:14:19.238Z,72.76
2023-01-02T09:19:20.097Z,73.61
2023-01-02T09:24:21.062Z,77.44
2023-01-02T09:29:21.787Z,82.36
2023-01-02T09:34:22.838Z,87.62
2023-01-02T09:39:28.553Z,88.49
2023-01-02T09:44:40.820Z,90.94
2023-01-02T09:49:49.122Z,94.12
2023-01-02T09:54:50.004Z,97.43
2023-01-02T10:00:23.887Z,99.93
2023-01-02T10:06:26.551Z,100.00
2023-01-02T10:13:44.141Z,100.00
2023-01-02T10:19:16.637Z,100.00
2023-01-02T10:24:37.083Z,100.00
2023-01-02T10:29:46.091Z,100.00
2023-01-02T10:36:39.795Z,100.00
2023-01-02T10:41:42.453Z,100.00
2023-01-02T10:46:43.406Z,100.00
2023-01-02T10:52:03.863Z,100.00
2023-01-02T10:57:19.776Z,100.00
2023-01-02T11:02:36.603Z,100.00
2023-01-02T11:07:39.055Z,100.00
2023-01-02T11:12:46.876Z,100.00
2023-01-02T11:17:47.849Z,100.00
2023-01-02T11:22:48.790Z,100.00
2023-01-02T11:27:50.823Z,100.00
2023-01-02T11:33:46.897Z,100.00
2023-01-02T11:38:50.309Z,100.00
2023-01-02T11:43:56.612Z,100.00
2023-01-02T11:49:20.220Z,100.00
2023-01-02T11:54:23.804Z,100.00
2023-01-02T11:59:35.627Z,100.00
2023-01-02T12:04:36.578Z,100.00
2023-01-02T12:14:56.236Z,100.00
2023-01-02T12:21:02.712Z,100.00
2023-01-02T12:26:21.077Z,100.00
2023-01-02T12:33:37.066Z,100.00
2023-01-02T12:42:37.259Z,100.00
2023-01-02T12:49:35.908Z,100.00
2023-01-02T12:54:51.795Z,100.00
2023-01-02T13:07:02.159Z,100.00
2023-01-02T13:12:25.667Z,100.00
2023-01-02T13:18:00.766Z,100.00
2023-01-02T13:23:28.608Z,100.00
2023-01-02T13:28:29.383Z,100.00
2023-01-02T13:33:43.002Z,100.00
2023-01-02T13:38:48.353Z,100.00
2023-01-02T13:43:54.467Z,100.00
2023-01-02T13:49:09.050Z,100.00
2023-01-02T13:54:17.305Z,100.00
2023-01-02T13:59:48.894Z,100.00
2023-01-02T14:04:51.013Z,100.00
2023-01-02T14:10:16.516Z,100.00
2023-01-02T14:15:25.867Z,100.00
2023-01-02T14:20:29.347Z,100.00
2023-01-02T14:25:32.078Z,100.00
2023-01-02T14:30:39.296Z,100.00
2023-01-02T14:35:50.158Z,100.00
2023-01-02T14:40:51.833Z,100.00
2023-01-02T14:46:07.115Z,100.00
2023-01-02T14:51:15.336Z,100.00
2023-01-02T14:56:21.035Z,100.00
2023-01-02T15:01:42.074Z,100.00
2023-01-02T15:06:50.123Z,100.00
2023-01-02T15:12:11.215Z,100.00
2023-01-02T15:17:19.066Z,100.00
2023-01-02T15:22:26.390Z,100.00
2023-01-02T15:27:33.238Z,100.00
2023-01-02T15:32:34.085Z,100.00
2023-01-02T15:37:41.412Z,100.00
2023-01-02T15:43:02.041Z,100.00
2023-01-02T15:48:03.767Z,100.00
2023-01-02T15:53:07.528Z,100.00
2023-01-02T15:58:31.238Z,100.00
2023-01-02T16:04:02.104Z,100.00
2023-01-02T16:09:17.344Z,100.00
2023-01-02T16:14:33.301Z,100.00
2023-01-02T16:19:37.828Z,100.00
2023-01-02T16:24:46.467Z,100.00
2023-01-02T16:29:47.456Z,100.00
2023-01-02T16:35:16.434Z,100.00
2023-01-02T16:40:59.966Z,100.00
2023-01-02T16:46:03.005Z,100.00
2023-01-02T16:51:03.994Z,100.00
2023-01-02T16:56:05.463Z,100.00
2023-01-02T17:01:11.013Z,100.00
2023-01-02T17:06:15.339Z,100.00
2023-01-02T17:11:20.742Z,100.00
2023-01-02T17:16:22.907Z,100.00
2023-01-02T17:21:29.177Z,100.00
2023-01-02T17:26:33.578Z,100.00
2023-01-02T17:31:34.723Z,100.00
2023-01-02T17:36:35.656Z,100.00
2023-01-02T17:41:36.428Z,100.00
2023-01-02T17:52:09.424Z,100.00
2023-01-02T17:57:10.858Z,100.00
2023-01-02T18:02:17.425Z,100.00
2023-01-02T18:07:18.285Z,100.00
2023-01-02T18:12:19.407Z,100.00
2023-01-02T18:17:29.955Z,100.00
2023-01-02T18:22:31.357Z,100.00
2023-01-02T18:27:34.077Z,100.00
2023-01-02T18:32:37.877Z,100.00
2023-01-02T18:37:40.192Z,100.00
2023-01-02T18:42:44.086Z,100.00
2023-01-02T18:47:47.317Z,100.00
2023-01-02T18:52:48.278Z,100.00
2023-01-02T18:58:04.179Z,100.00
2023-01-02T19:03:25.597Z,100.00
2023-01-02T19:08:38.626Z,100.00
2023-01-02T19:13:39.403Z,100.00
2023-01-02T19:18:52.813Z,100.00
2023-01-02T19:24:08.011Z,100.00
2023-01-02T19:29:30.722Z,100.00
2023-01-02T19:34:56.086Z,100.00
2023-01-02T19:39:59.171Z,100.00
2023-01-02T19:45:03.126Z,100.00
2023-01-02T19:50:08.246Z,100.00
2023-01-02T19:55:10.662Z,100.00
2023-01-02T20:00:14.496Z,100.00
2023-01-02T20:05:21.054Z,100.00
2023-01-02T20:10:23.343Z,100.00
2023-01-02T20:15:25.866Z,100.00
2023-01-02T20:20:28.727Z,100.00
2023-01-02T20:25:29.669Z,100.00
2023-01-02T20:30:30.481Z,100.00
2023-01-02T20:35:31.277Z,100.00
2023-01-02T20:40:33.640Z,100.00
2023-01-02T20:45:34.413Z,100.00
2023-01-02T20:50:35.292Z,100.00
2023-01-02T20:55:38.318Z,100.00
2023-01-02T21:00:39.369Z,100.00
2023-01-02T21:05:40.892Z,100.00
2023-01-02T21:10:41.695Z,100.00
2023-01-02T21:15:45.490Z,100.00
2023-01-02T21:21:00.957Z,100.00
2023-01-02T21:26:02.870Z,100.00
2023-01-02T21:31:04.180Z,100.00
2023-01-02T21:36:08.626Z,100.00
2023-01-02T21:41:28.594Z,100.00
2023-01-02T21:46:29.469Z,100.00
2023-01-02T21:51:32.997Z,100.00
2023-01-02T21:56:34.187Z,100.00
2023-01-02T22:01:35.181Z,100.00
2023-01-02T22:06:36.815Z,100.00
2023-01-02T22:11:54.385Z,100.00
2023-01-02T22:16:57.274Z,100.00
2023-01-02T22:21:59.011Z,100.00
2023-01-02T22:27:03.692Z,100.00
2023-01-02T22:32:05.025Z,100.00
2023-01-02T22:37:05.800Z,100.00
2023-01-02T22:42:58.826Z,100.00
2023-01-02T22:48:05.230Z,100.00
2023-01-02T22:53:14.921Z,100.00
2023-01-02T22:58:16.127Z,100.00
2023-01-02T23:03:16.912Z,100.00
2023-01-02T23:08:17.703Z,100.00
2023-01-02T23:13:18.581Z,100.00
2023-01-02T23:19:49.633Z,100.00
2023-01-02T23:24:50.505Z,100.00
2023-01-02T23:29:51.401Z,100.00
2023-01-02T23:34:52.165Z,100.00
2023-01-02T23:39:52.933Z,100.00
2023-01-02T23:44:53.719Z,100.00
2023-01-02T23:49:54.473Z,100.00
2023-01-02T23:54:55.277Z,100.00
2023-01-02T23:59:56.195Z,100.00
